首页
METAR-TAF:

METAR-TAF

机场 :

大马士革国际机场

大马士革, 叙利亚

纬度: 33-25N, 经度: 036-31E, 海拔: 608米

当前天气观测

该预报发布于1小时和1分钟前的23:00 UTC
风速4节,风向西南
温度 19°C
湿度 43%
气压 1013 hPa
能见度10公里或以上
1500米以下无云,无积雨云

METAR: OSDI 192300Z 22004KT CAVOK 19/06 Q1013

时间: 03:01 (00:01 UTC)

预报

该预报发布于2小时和1分钟前的22:00 UTC
预报有效从20日的 00点(UTC)到 21日的 06点(UTC)
风速10节,风向西南
能见度10公里或以上
1500米以下无云,无积雨云
短暂存在
从 20日的 09点(UTC)到 20日的 18点(UTC)
风速15节,风向西转西南,有时为25节阵风
能见度10公里或以上
少量云层高于3000英尺

TAF: OSDI 192200Z 2000/2106 22010KT CAVOK TEMPO 2009/2018 24015G25KT 9999 FEW030

超过4000个机场的气象观测和天气预报(METAR&TAF报告)。

可查询的气象台以黄色和红色小点在地图上表示。

将鼠标移到小点上方,可查看气象台名称。

然后点击查看天气观测和预报。

如需切换地图:点击带黑十字的绿色按钮放大地图;点击带横线的绿色按钮缩小地图;或者点击绿色箭头查看邻近地区的地图。


METAR-TAF: